Terminal Aerodrome Forecast
Issued by NWS Wakefield, VA

Home | Current Version | Previous Version | Text Only | Print | Product List | Glossary On
Versions: 1 2 3 4 5 6 7 8 9 10 11 12 13 14 15 16 17 18 19 20 21 22 23
000
FTUS41 KAKQ 211800 AAA
TAFSBY
TAF AMD
KSBY 211847Z 2119/2218 32008KT P6SM SCT050
     FM212300 24003KT P6SM SCT060
     FM220600 28006KT P6SM SCT250
     FM221300 31011KT P6SM SKC=

USA.gov is the U.S. government's official web portal to all federal, state and local government web resources and services.